sensor_id;sensor_type;location;lat;lon;timestamp;temperature;humidity
23713;DHT22;12035;49.978;8.298;2022-12-10T00:01:21;5.70;63.70
23713;DHT22;12035;49.978;8.298;2022-12-10T00:06:22;5.70;63.60
23713;DHT22;12035;49.978;8.298;2022-12-10T00:11:21;5.70;63.70
23713;DHT22;12035;49.978;8.298;2022-12-10T00:16:22;5.60;63.60
23713;DHT22;12035;49.978;8.298;2022-12-10T00:21:24;5.60;63.60
23713;DHT22;12035;49.978;8.298;2022-12-10T00:26:27;5.50;63.70
23713;DHT22;12035;49.978;8.298;2022-12-10T00:31:27;5.50;63.90
23713;DHT22;12035;49.978;8.298;2022-12-10T00:36:27;5.40;63.60
23713;DHT22;12035;49.978;8.298;2022-12-10T00:41:25;5.40;63.70
23713;DHT22;12035;49.978;8.298;2022-12-10T00:46:23;5.20;63.40
23713;DHT22;12035;49.978;8.298;2022-12-10T00:51:21;5.10;63.80
23713;DHT22;12035;49.978;8.298;2022-12-10T00:56:23;5.10;64.00
23713;DHT22;12035;49.978;8.298;2022-12-10T01:01:22;5.10;64.20
23713;DHT22;12035;49.978;8.298;2022-12-10T01:06:22;5.10;64.20
23713;DHT22;12035;49.978;8.298;2022-12-10T01:11:24;5.10;64.30
23713;DHT22;12035;49.978;8.298;2022-12-10T01:16:23;5.10;64.40
23713;DHT22;12035;49.978;8.298;2022-12-10T01:21:21;5.10;64.40
23713;DHT22;12035;49.978;8.298;2022-12-10T01:26:21;5.10;64.30
23713;DHT22;12035;49.978;8.298;2022-12-10T01:31:20;5.10;64.30
23713;DHT22;12035;49.978;8.298;2022-12-10T01:36:20;5.10;64.50
23713;DHT22;12035;49.978;8.298;2022-12-10T01:41:21;5.10;64.50
23713;DHT22;12035;49.978;8.298;2022-12-10T01:46:20;5.10;64.40
23713;DHT22;12035;49.978;8.298;2022-12-10T01:51:18;5.00;64.40
23713;DHT22;12035;49.978;8.298;2022-12-10T01:56:17;5.00;64.50
23713;DHT22;12035;49.978;8.298;2022-12-10T02:01:23;4.90;64.50
23713;DHT22;12035;49.978;8.298;2022-12-10T02:06:31;4.90;64.50
23713;DHT22;12035;49.978;8.298;2022-12-10T02:11:39;4.90;64.70
23713;DHT22;12035;49.978;8.298;2022-12-10T02:16:44;4.90;64.60
23713;DHT22;12035;49.978;8.298;2022-12-10T02:21:47;4.90;64.70
23713;DHT22;12035;49.978;8.298;2022-12-10T02:26:49;4.90;64.70
23713;DHT22;12035;49.978;8.298;2022-12-10T02:31:53;4.80;64.50
23713;DHT22;12035;49.978;8.298;2022-12-10T02:36:53;4.80;64.70
23713;DHT22;12035;49.978;8.298;2022-12-10T02:41:53;4.80;64.70
23713;DHT22;12035;49.978;8.298;2022-12-10T02:46:54;4.70;64.70
23713;DHT22;12035;49.978;8.298;2022-12-10T02:51:52;4.70;64.80
23713;DHT22;12035;49.978;8.298;2022-12-10T02:56:54;4.70;64.80
23713;DHT22;12035;49.978;8.298;2022-12-10T03:02:01;4.70;64.80
23713;DHT22;12035;49.978;8.298;2022-12-10T03:07:05;4.70;64.80
23713;DHT22;12035;49.978;8.298;2022-12-10T03:12:12;4.70;64.80
23713;DHT22;12035;49.978;8.298;2022-12-10T03:17:14;4.70;64.60
23713;DHT22;12035;49.978;8.298;2022-12-10T03:22:14;4.60;64.60
23713;DHT22;12035;49.978;8.298;2022-12-10T03:27:14;4.60;64.50
23713;DHT22;12035;49.978;8.298;2022-12-10T03:32:14;4.60;64.30
23713;DHT22;12035;49.978;8.298;2022-12-10T03:37:13;4.60;64.30
23713;DHT22;12035;49.978;8.298;2022-12-10T03:42:10;4.60;64.30
23713;DHT22;12035;49.978;8.298;2022-12-10T03:47:10;4.50;64.20
23713;DHT22;12035;49.978;8.298;2022-12-10T03:52:10;4.50;64.30
23713;DHT22;12035;49.978;8.298;2022-12-10T03:57:08;4.50;64.30
23713;DHT22;12035;49.978;8.298;2022-12-10T04:02:05;4.40;64.20
23713;DHT22;12035;49.978;8.298;2022-12-10T04:07:02;4.40;64.30
23713;DHT22;12035;49.978;8.298;2022-12-10T04:12:02;4.40;64.40
23713;DHT22;12035;49.978;8.298;2022-12-10T04:17:00;4.40;64.40
23713;DHT22;12035;49.978;8.298;2022-12-10T04:21:57;4.40;64.20
23713;DHT22;12035;49.978;8.298;2022-12-10T04:27:16;4.40;64.20
23713;DHT22;12035;49.978;8.298;2022-12-10T04:32:15;4.30;64.10
23713;DHT22;12035;49.978;8.298;2022-12-10T04:37:13;4.30;64.20
23713;DHT22;12035;49.978;8.298;2022-12-10T04:42:12;4.20;64.10
23713;DHT22;12035;49.978;8.298;2022-12-10T04:47:10;4.20;64.30
23713;DHT22;12035;49.978;8.298;2022-12-10T04:52:10;4.20;64.50
23713;DHT22;12035;49.978;8.298;2022-12-10T04:57:07;4.20;64.50
23713;DHT22;12035;49.978;8.298;2022-12-10T05:02:07;4.20;64.40
23713;DHT22;12035;49.978;8.298;2022-12-10T05:07:04;4.20;64.40
23713;DHT22;12035;49.978;8.298;2022-12-10T05:12:01;4.20;64.40
23713;DHT22;12035;49.978;8.298;2022-12-10T05:16:59;4.20;64.40
23713;DHT22;12035;49.978;8.298;2022-12-10T05:21:57;4.20;64.30
23713;DHT22;12035;49.978;8.298;2022-12-10T05:27:12;4.20;64.40
23713;DHT22;12035;49.978;8.298;2022-12-10T05:32:09;4.20;64.30
23713;DHT22;12035;49.978;8.298;2022-12-10T05:37:07;4.20;64.30
23713;DHT22;12035;49.978;8.298;2022-12-10T05:42:05;4.10;64.10
23713;DHT22;12035;49.978;8.298;2022-12-10T05:47:02;4.10;64.20
23713;DHT22;12035;49.978;8.298;2022-12-10T05:51:59;4.10;64.20
23713;DHT22;12035;49.978;8.298;2022-12-10T05:56:57;4.00;64.30
23713;DHT22;12035;49.978;8.298;2022-12-10T06:01:54;3.90;64.10
23713;DHT22;12035;49.978;8.298;2022-12-10T06:06:51;3.90;64.20
23713;DHT22;12035;49.978;8.298;2022-12-10T06:11:49;3.80;64.20
23713;DHT22;12035;49.978;8.298;2022-12-10T06:16:47;3.80;64.30
23713;DHT22;12035;49.978;8.298;2022-12-10T06:21:44;3.80;64.40
23713;DHT22;12035;49.978;8.298;2022-12-10T06:26:41;3.80;65.20
23713;DHT22;12035;49.978;8.298;2022-12-10T06:31:38;3.70;64.50
23713;DHT22;12035;49.978;8.298;2022-12-10T06:36:37;3.70;65.40
23713;DHT22;12035;49.978;8.298;2022-12-10T06:41:34;3.70;64.70
23713;DHT22;12035;49.978;8.298;2022-12-10T06:46:31;3.70;64.60
23713;DHT22;12035;49.978;8.298;2022-12-10T06:51:28;3.70;64.70
23713;DHT22;12035;49.978;8.298;2022-12-10T06:56:27;3.70;64.70
23713;DHT22;12035;49.978;8.298;2022-12-10T07:01:24;3.70;64.70
23713;DHT22;12035;49.978;8.298;2022-12-10T07:06:22;3.70;64.70
23713;DHT22;12035;49.978;8.298;2022-12-10T07:11:22;3.70;64.80
23713;DHT22;12035;49.978;8.298;2022-12-10T07:16:22;3.70;64.90
23713;DHT22;12035;49.978;8.298;2022-12-10T07:21:22;3.70;65.10
23713;DHT22;12035;49.978;8.298;2022-12-10T07:26:21;3.70;65.20
23713;DHT22;12035;49.978;8.298;2022-12-10T07:31:21;3.70;65.20
23713;DHT22;12035;49.978;8.298;2022-12-10T07:36:23;3.70;65.20
23713;DHT22;12035;49.978;8.298;2022-12-10T07:41:22;3.80;65.30
23713;DHT22;12035;49.978;8.298;2022-12-10T07:46:22;3.70;65.20
23713;DHT22;12035;49.978;8.298;2022-12-10T07:51:21;3.80;65.30
23713;DHT22;12035;49.978;8.298;2022-12-10T07:56:19;3.80;65.20
23713;DHT22;12035;49.978;8.298;2022-12-10T08:01:22;3.90;65.20
23713;DHT22;12035;49.978;8.298;2022-12-10T08:06:21;3.90;65.20
23713;DHT22;12035;49.978;8.298;2022-12-10T08:11:20;3.90;65.20
23713;DHT22;12035;49.978;8.298;2022-12-10T08:16:24;4.00;65.10
23713;DHT22;12035;49.978;8.298;2022-12-10T08:21:25;4.00;65.10
23713;DHT22;12035;49.978;8.298;2022-12-10T08:26:24;4.00;65.10
23713;DHT22;12035;49.978;8.298;2022-12-10T08:31:25;4.10;65.10
23713;DHT22;12035;49.978;8.298;2022-12-10T08:36:23;4.10;65.20
23713;DHT22;12035;49.978;8.298;2022-12-10T08:41:21;4.10;65.20
23713;DHT22;12035;49.978;8.298;2022-12-10T08:46:19;4.10;65.20
23713;DHT22;12035;49.978;8.298;2022-12-10T08:51:18;4.20;65.40
23713;DHT22;12035;49.978;8.298;2022-12-10T08:56:16;4.20;65.50
23713;DHT22;12035;49.978;8.298;2022-12-10T09:01:15;4.20;65.60
23713;DHT22;12035;49.978;8.298;2022-12-10T09:06:15;4.30;65.70
23713;DHT22;12035;49.978;8.298;2022-12-10T09:11:17;4.40;65.90
23713;DHT22;12035;49.978;8.298;2022-12-10T09:16:16;4.50;66.00
23713;DHT22;12035;49.978;8.298;2022-12-10T09:21:15;4.60;66.00
23713;DHT22;12035;49.978;8.298;2022-12-10T09:26:15;4.70;66.00
23713;DHT22;12035;49.978;8.298;2022-12-10T09:31:13;4.70;65.80
23713;DHT22;12035;49.978;8.298;2022-12-10T09:36:12;4.90;65.90
23713;DHT22;12035;49.978;8.298;2022-12-10T09:41:25;5.00;65.90
23713;DHT22;12035;49.978;8.298;2022-12-10T09:46:45;5.20;65.80
23713;DHT22;12035;49.978;8.298;2022-12-10T09:51:45;5.20;65.50
23713;DHT22;12035;49.978;8.298;2022-12-10T09:56:44;5.40;65.40
23713;DHT22;12035;49.978;8.298;2022-12-10T10:01:42;5.50;65.30
23713;DHT22;12035;49.978;8.298;2022-12-10T10:06:40;5.50;65.10
23713;DHT22;12035;49.978;8.298;2022-12-10T10:11:38;5.60;65.00
23713;DHT22;12035;49.978;8.298;2022-12-10T10:16:40;5.70;65.20
23713;DHT22;12035;49.978;8.298;2022-12-10T10:21:44;5.90;64.90
23713;DHT22;12035;49.978;8.298;2022-12-10T10:26:42;6.00;64.50
23713;DHT22;12035;49.978;8.298;2022-12-10T10:31:42;6.10;64.10
23713;DHT22;12035;49.978;8.298;2022-12-10T10:36:40;6.10;63.60
23713;DHT22;12035;49.978;8.298;2022-12-10T10:41:39;6.10;63.10
23713;DHT22;12035;49.978;8.298;2022-12-10T10:46:39;6.10;63.00
23713;DHT22;12035;49.978;8.298;2022-12-10T10:51:42;6.00;62.60
23713;DHT22;12035;49.978;8.298;2022-12-10T10:56:42;5.90;62.30
23713;DHT22;12035;49.978;8.298;2022-12-10T11:01:47;5.90;62.50
23713;DHT22;12035;49.978;8.298;2022-12-10T11:06:45;5.80;62.70
23713;DHT22;12035;49.978;8.298;2022-12-10T11:11:50;5.90;63.30
23713;DHT22;12035;49.978;8.298;2022-12-10T11:16:49;6.00;63.40
23713;DHT22;12035;49.978;8.298;2022-12-10T11:21:47;6.10;63.50
23713;DHT22;12035;49.978;8.298;2022-12-10T11:27:03;6.30;63.40
23713;DHT22;12035;49.978;8.298;2022-12-10T11:32:13;6.50;62.50
23713;DHT22;12035;49.978;8.298;2022-12-10T11:37:27;6.70;62.50
23713;DHT22;12035;49.978;8.298;2022-12-10T11:42:35;7.00;62.30
23713;DHT22;12035;49.978;8.298;2022-12-10T11:47:47;7.20;62.00
23713;DHT22;12035;49.978;8.298;2022-12-10T11:58:46;7.60;60.40
23713;DHT22;12035;49.978;8.298;2022-12-10T12:04:00;7.80;60.10
23713;DHT22;12035;49.978;8.298;2022-12-10T12:09:08;7.90;59.70
23713;DHT22;12035;49.978;8.298;2022-12-10T12:14:16;7.90;59.40
23713;DHT22;12035;49.978;8.298;2022-12-10T12:19:24;7.90;59.20
23713;DHT22;12035;49.978;8.298;2022-12-10T12:24:32;7.90;59.20
23713;DHT22;12035;49.978;8.298;2022-12-10T12:29:34;7.80;59.30
23713;DHT22;12035;49.978;8.298;2022-12-10T12:34:44;7.90;59.30
23713;DHT22;12035;49.978;8.298;2022-12-10T12:39:50;8.00;59.20
23713;DHT22;12035;49.978;8.298;2022-12-10T12:44:59;8.10;59.00
23713;DHT22;12035;49.978;8.298;2022-12-10T12:50:03;8.20;58.60
23713;DHT22;12035;49.978;8.298;2022-12-10T12:55:13;8.30;58.60
23713;DHT22;12035;49.978;8.298;2022-12-10T13:00:16;8.30;58.30
23713;DHT22;12035;49.978;8.298;2022-12-10T13:05:28;8.20;58.10
23713;DHT22;12035;49.978;8.298;2022-12-10T13:10:26;8.20;57.90
23713;DHT22;12035;49.978;8.298;2022-12-10T13:15:34;8.20;58.10
23713;DHT22;12035;49.978;8.298;2022-12-10T13:20:35;8.10;58.00
23713;DHT22;12035;49.978;8.298;2022-12-10T13:25:42;8.10;58.20
23713;DHT22;12035;49.978;8.298;2022-12-10T13:31:18;7.90;58.10
23713;DHT22;12035;49.978;8.298;2022-12-10T13:37:02;7.90;58.10
23713;DHT22;12035;49.978;8.298;2022-12-10T13:42:35;7.80;57.90
23713;DHT22;12035;49.978;8.298;2022-12-10T13:47:52;7.80;57.80
23713;DHT22;12035;49.978;8.298;2022-12-10T13:52:57;7.70;57.90
23713;DHT22;12035;49.978;8.298;2022-12-10T13:58:25;7.60;57.40
23713;DHT22;12035;49.978;8.298;2022-12-10T14:09:13;7.40;57.30
23713;DHT22;12035;49.978;8.298;2022-12-10T14:14:20;7.30;57.50
23713;DHT22;12035;49.978;8.298;2022-12-10T14:19:20;7.10;57.50
23713;DHT22;12035;49.978;8.298;2022-12-10T14:24:33;7.10;57.70
23713;DHT22;12035;49.978;8.298;2022-12-10T14:29:32;6.90;57.60
23713;DHT22;12035;49.978;8.298;2022-12-10T14:34:29;6.80;57.80
23713;DHT22;12035;49.978;8.298;2022-12-10T14:39:28;6.80;58.50
23713;DHT22;12035;49.978;8.298;2022-12-10T14:44:29;6.80;57.90
23713;DHT22;12035;49.978;8.298;2022-12-10T14:49:27;6.70;57.90
23713;DHT22;12035;49.978;8.298;2022-12-10T14:54:27;6.70;57.80
23713;DHT22;12035;49.978;8.298;2022-12-10T14:59:30;6.60;57.80
23713;DHT22;12035;49.978;8.298;2022-12-10T15:04:40;6.50;57.70
23713;DHT22;12035;49.978;8.298;2022-12-10T15:09:39;6.50;57.70
23713;DHT22;12035;49.978;8.298;2022-12-10T15:14:37;6.40;58.00
23713;DHT22;12035;49.978;8.298;2022-12-10T15:19:39;6.30;58.00
23713;DHT22;12035;49.978;8.298;2022-12-10T15:24:39;6.30;58.10
23713;DHT22;12035;49.978;8.298;2022-12-10T15:29:39;6.20;58.10
23713;DHT22;12035;49.978;8.298;2022-12-10T15:34:41;6.20;58.20
23713;DHT22;12035;49.978;8.298;2022-12-10T15:39:46;6.10;58.10
23713;DHT22;12035;49.978;8.298;2022-12-10T15:44:46;6.10;58.30
23713;DHT22;12035;49.978;8.298;2022-12-10T15:49:44;6.00;58.40
23713;DHT22;12035;49.978;8.298;2022-12-10T15:54:43;6.00;58.40
23713;DHT22;12035;49.978;8.298;2022-12-10T15:59:42;5.90;58.30
23713;DHT22;12035;49.978;8.298;2022-12-10T16:04:41;5.90;58.50
23713;DHT22;12035;49.978;8.298;2022-12-10T16:09:38;5.80;58.40
23713;DHT22;12035;49.978;8.298;2022-12-10T16:14:35;5.60;58.40
23713;DHT22;12035;49.978;8.298;2022-12-10T16:19:33;5.60;58.60
23713;DHT22;12035;49.978;8.298;2022-12-10T16:24:33;5.50;58.70
23713;DHT22;12035;49.978;8.298;2022-12-10T16:29:31;5.50;58.70
23713;DHT22;12035;49.978;8.298;2022-12-10T16:34:28;5.40;58.90
23713;DHT22;12035;49.978;8.298;2022-12-10T16:39:25;5.40;59.00
23713;DHT22;12035;49.978;8.298;2022-12-10T16:44:25;5.40;59.00
23713;DHT22;12035;49.978;8.298;2022-12-10T16:49:23;5.40;59.10
23713;DHT22;12035;49.978;8.298;2022-12-10T16:54:20;5.40;59.00
23713;DHT22;12035;49.978;8.298;2022-12-10T16:59:18;5.30;59.00
23713;DHT22;12035;49.978;8.298;2022-12-10T17:04:16;5.30;59.00
23713;DHT22;12035;49.978;8.298;2022-12-10T17:09:13;5.30;59.00
23713;DHT22;12035;49.978;8.298;2022-12-10T17:14:23;5.30;59.00
23713;DHT22;12035;49.978;8.298;2022-12-10T17:19:23;5.20;58.90
23713;DHT22;12035;49.978;8.298;2022-12-10T17:24:21;5.20;58.90
23713;DHT22;12035;49.978;8.298;2022-12-10T17:29:24;5.10;58.90
23713;DHT22;12035;49.978;8.298;2022-12-10T17:34:24;5.10;59.00
23713;DHT22;12035;49.978;8.298;2022-12-10T17:39:22;5.00;59.10
23713;DHT22;12035;49.978;8.298;2022-12-10T17:44:20;5.00;59.70
23713;DHT22;12035;49.978;8.298;2022-12-10T17:49:18;5.00;59.20
23713;DHT22;12035;49.978;8.298;2022-12-10T17:54:16;4.90;59.20
23713;DHT22;12035;49.978;8.298;2022-12-10T17:59:14;4.90;59.20
23713;DHT22;12035;49.978;8.298;2022-12-10T18:04:11;4.90;59.40
23713;DHT22;12035;49.978;8.298;2022-12-10T18:09:10;4.80;59.30
23713;DHT22;12035;49.978;8.298;2022-12-10T18:14:09;4.80;59.30
23713;DHT22;12035;49.978;8.298;2022-12-10T18:19:12;4.80;59.40
23713;DHT22;12035;49.978;8.298;2022-12-10T18:24:10;4.70;59.30
23713;DHT22;12035;49.978;8.298;2022-12-10T18:29:11;4.70;59.40
23713;DHT22;12035;49.978;8.298;2022-12-10T18:34:12;4.70;59.40
23713;DHT22;12035;49.978;8.298;2022-12-10T18:39:16;4.70;59.50
23713;DHT22;12035;49.978;8.298;2022-12-10T18:44:17;4.60;59.40
23713;DHT22;12035;49.978;8.298;2022-12-10T18:49:23;4.60;59.50
23713;DHT22;12035;49.978;8.298;2022-12-10T18:54:24;4.60;59.60
23713;DHT22;12035;49.978;8.298;2022-12-10T18:59:24;4.50;59.50
23713;DHT22;12035;49.978;8.298;2022-12-10T19:04:20;4.50;59.60
23713;DHT22;12035;49.978;8.298;2022-12-10T19:09:18;4.50;59.60
23713;DHT22;12035;49.978;8.298;2022-12-10T19:14:20;4.40;59.60
23713;DHT22;12035;49.978;8.298;2022-12-10T19:19:20;4.40;59.60
23713;DHT22;12035;49.978;8.298;2022-12-10T19:24:17;4.30;59.60
23713;DHT22;12035;49.978;8.298;2022-12-10T19:29:18;4.20;59.60
23713;DHT22;12035;49.978;8.298;2022-12-10T19:34:21;4.20;59.70
23713;DHT22;12035;49.978;8.298;2022-12-10T19:39:23;4.10;59.70
23713;DHT22;12035;49.978;8.298;2022-12-10T19:44:22;4.10;59.70
23713;DHT22;12035;49.978;8.298;2022-12-10T19:49:22;4.00;60.40
23713;DHT22;12035;49.978;8.298;2022-12-10T19:54:24;4.00;59.80
23713;DHT22;12035;49.978;8.298;2022-12-10T19:59:21;3.90;59.80
23713;DHT22;12035;49.978;8.298;2022-12-10T20:04:18;3.90;59.90
23713;DHT22;12035;49.978;8.298;2022-12-10T20:09:19;3.80;59.90
23713;DHT22;12035;49.978;8.298;2022-12-10T20:14:19;3.80;60.00
23713;DHT22;12035;49.978;8.298;2022-12-10T20:19:18;3.80;60.00
23713;DHT22;12035;49.978;8.298;2022-12-10T20:24:18;3.70;60.10
23713;DHT22;12035;49.978;8.298;2022-12-10T20:29:18;3.80;60.20
23713;DHT22;12035;49.978;8.298;2022-12-10T20:34:16;3.60;60.10
23713;DHT22;12035;49.978;8.298;2022-12-10T20:39:19;3.60;60.10
23713;DHT22;12035;49.978;8.298;2022-12-10T20:44:17;3.60;60.30
23713;DHT22;12035;49.978;8.298;2022-12-10T20:49:17;3.50;60.40
23713;DHT22;12035;49.978;8.298;2022-12-10T20:54:15;3.50;60.50
23713;DHT22;12035;49.978;8.298;2022-12-10T20:59:14;3.50;60.60
23713;DHT22;12035;49.978;8.298;2022-12-10T21:04:12;3.50;60.80
23713;DHT22;12035;49.978;8.298;2022-12-10T21:09:12;3.40;60.80
23713;DHT22;12035;49.978;8.298;2022-12-10T21:14:09;3.40;60.80
23713;DHT22;12035;49.978;8.298;2022-12-10T21:19:09;3.50;60.90
23713;DHT22;12035;49.978;8.298;2022-12-10T21:24:08;3.40;60.80
23713;DHT22;12035;49.978;8.298;2022-12-10T21:29:05;3.40;60.90
23713;DHT22;12035;49.978;8.298;2022-12-10T21:34:07;3.40;60.90
23713;DHT22;12035;49.978;8.298;2022-12-10T21:39:05;3.50;61.20
23713;DHT22;12035;49.978;8.298;2022-12-10T21:44:03;3.50;61.30
23713;DHT22;12035;49.978;8.298;2022-12-10T21:49:03;3.50;61.40
23713;DHT22;12035;49.978;8.298;2022-12-10T21:54:02;3.50;61.40
23713;DHT22;12035;49.978;8.298;2022-12-10T21:59:01;3.50;61.40
23713;DHT22;12035;49.978;8.298;2022-12-10T22:03:58;3.60;61.40
23713;DHT22;12035;49.978;8.298;2022-12-10T22:08:56;3.60;61.40
23713;DHT22;12035;49.978;8.298;2022-12-10T22:13:55;3.60;61.50
23713;DHT22;12035;49.978;8.298;2022-12-10T22:18:53;3.60;61.60
23713;DHT22;12035;49.978;8.298;2022-12-10T22:23:50;3.60;61.50
23713;DHT22;12035;49.978;8.298;2022-12-10T22:28:48;3.50;61.30
23713;DHT22;12035;49.978;8.298;2022-12-10T22:33:47;3.50;61.50
23713;DHT22;12035;49.978;8.298;2022-12-10T22:38:44;3.50;61.90
23713;DHT22;12035;49.978;8.298;2022-12-10T22:43:42;3.50;61.90
23713;DHT22;12035;49.978;8.298;2022-12-10T22:48:39;3.50;61.90
23713;DHT22;12035;49.978;8.298;2022-12-10T22:53:37;3.50;61.80
23713;DHT22;12035;49.978;8.298;2022-12-10T22:58:35;3.50;61.90
23713;DHT22;12035;49.978;8.298;2022-12-10T23:03:32;3.40;61.80
23713;DHT22;12035;49.978;8.298;2022-12-10T23:08:29;3.30;61.70
23713;DHT22;12035;49.978;8.298;2022-12-10T23:13:28;3.30;61.90
23713;DHT22;12035;49.978;8.298;2022-12-10T23:18:25;3.20;62.00
23713;DHT22;12035;49.978;8.298;2022-12-10T23:23:22;3.20;62.10
23713;DHT22;12035;49.978;8.298;2022-12-10T23:28:20;3.10;62.20
23713;DHT22;12035;49.978;8.298;2022-12-10T23:33:18;3.10;62.40
23713;DHT22;12035;49.978;8.298;2022-12-10T23:38:15;3.10;62.50
23713;DHT22;12035;49.978;8.298;2022-12-10T23:43:13;3.10;62.60
23713;DHT22;12035;49.978;8.298;2022-12-10T23:48:10;3.10;62.70
23713;DHT22;12035;49.978;8.298;2022-12-10T23:53:09;3.20;62.70
23713;DHT22;12035;49.978;8.298;2022-12-10T23:58:06;3.20;62.70
